createdAt,value
2023-05-25T00:06:55.591Z,13.60
2023-05-25T00:42:12.938Z,13.30
2023-05-25T01:07:32.710Z,13.20
2023-05-25T01:38:35.992Z,13.60
2023-05-25T02:04:00.316Z,13.80
2023-05-25T02:29:11.779Z,13.80
2023-05-25T02:54:26.992Z,14.00
2023-05-25T03:19:50.967Z,13.90
2023-05-25T03:50:14.384Z,13.80
2023-05-25T04:51:07.289Z,15.00
2023-05-25T05:21:25.130Z,15.00
2023-05-25T05:46:29.371Z,15.10
2023-05-25T06:52:38.694Z,15.60
2023-05-25T07:17:34.056Z,16.00
2023-05-25T07:43:24.901Z,16.70
2023-05-25T10:30:17.774Z,19.60
2023-05-25T10:51:11.847Z,20.40
2023-05-25T11:16:40.379Z,21.20
2023-05-25T11:20:59.549Z,21.20
2023-05-25T12:11:45.695Z,22.10
2023-05-25T12:32:28.844Z,23.10
2023-05-25T12:52:49.780Z,25.30
2023-05-25T13:18:12.534Z,23.90
2023-05-25T14:13:28.156Z,29.20
2023-05-25T14:29:23.853Z,28.90
2023-05-25T15:14:59.887Z,27.80
2023-05-25T15:44:49.088Z,25.50
2023-05-25T16:10:22.125Z,23.70
2023-05-25T16:35:53.862Z,23.50
2023-05-25T17:11:00.897Z,22.60
2023-05-25T17:36:50.296Z,22.10
2023-05-25T18:12:26.037Z,21.40
2023-05-25T18:52:22.545Z,20.40
2023-05-25T19:12:57.589Z,20.10
2023-05-25T19:28:29.728Z,20.10
2023-05-25T19:53:50.201Z,20.40
2023-05-25T20:24:01.395Z,19.80
2023-05-25T20:44:28.730Z,19.30
2023-05-25T21:14:47.777Z,18.90
2023-05-25T21:40:17.625Z,17.90
2023-05-25T22:00:33.935Z,17.80
2023-05-25T22:35:28.473Z,17.00
2023-05-25T22:55:49.546Z,17.30
2023-05-25T23:21:45.536Z,17.10
